Terminal Aerodrome Forecast
Issued by NWS Pocatello, ID

Home | Current Version | Previous Version | Text Only | Print | Product List | Glossary On
Versions: 1 2 3 4 5 6 7 8 9 10 11 12 13 14 15
000
FTUS45 KPIH 050520
TAFBYI
TAF
KBYI 050520Z 0506/0606 21006KT P6SM -TSRA SCT070 BKN120CB
     FM050700 21006KT P6SM VCTS SCT080 BKN120CB
     FM051000 23006KT P6SM VCSH SCT080 BKN150
     FM051800 27012KT P6SM VCTS SCT080 BKN120CB=

USA.gov is the U.S. government's official web portal to all federal, state and local government web resources and services.